Time;durP1;ratioP1;P1;durP2;ratioP2;P2;SDS_P1;SDS_P2;PMS_P1;PMS_P2;Temp;Humidity;BMP_temperature;BMP_pressure;BME280_temperature;BME280_humidity;BME280_pressure;Samples;Min_cycle;Max_cycle;Signal;HPM_P1;HPM_P2
2020/12/25 00:02:07;;;;;;;0.30;0.30;;;5.60;99.90;;;;;;4398489;32;20101;-56
2020/12/25 00:04:34;;;;;;;0.28;0.28;;;5.60;99.90;;;;;;4398871;32;20063;-55
2020/12/25 00:07:00;;;;;;;0.30;0.30;;;5.70;99.90;;;;;;4384865;32;20058;-55
2020/12/25 00:09:26;;;;;;;0.30;0.30;;;5.60;99.90;;;;;;4383148;32;20133;-57
2020/12/25 00:11:51;;;;;;;0.30;0.30;;;5.60;99.90;;;;;;4396574;32;20062;-54
2020/12/25 00:14:17;;;;;;;0.20;0.20;;;5.50;99.90;;;;;;4402032;32;20090;-57
2020/12/25 00:16:42;;;;;;;0.28;0.28;;;5.50;99.90;;;;;;4401412;32;20054;-57
2020/12/25 00:19:08;;;;;;;0.32;0.32;;;5.50;99.90;;;;;;4387057;32;20066;-56
2020/12/25 00:21:33;;;;;;;0.85;0.82;;;5.50;99.90;;;;;;4387047;32;20066;-54
2020/12/25 00:23:59;;;;;;;0.40;0.40;;;5.50;99.90;;;;;;4385961;32;20071;-56
2020/12/25 00:26:26;;;;;;;0.68;0.68;;;5.60;99.90;;;;;;4386309;32;20537;-58
2020/12/25 00:28:53;;;;;;;0.37;0.37;;;5.50;99.90;;;;;;4387246;32;20062;-58
2020/12/25 00:34:07;;;;;;;0.40;0.40;;;5.60;99.90;;;;;;4384973;32;20090;-58
2020/12/25 00:36:36;;;;;;;0.32;0.32;;;5.60;99.90;;;;;;4384605;32;20095;-55
2020/12/25 00:39:06;;;;;;;0.73;0.73;;;5.50;99.90;;;;;;4372043;32;20098;-57
2020/12/25 00:41:32;;;;;;;0.30;0.30;;;5.60;99.90;;;;;;4386153;32;20059;-55
2020/12/25 00:43:57;;;;;;;0.43;0.35;;;5.60;99.90;;;;;;4385396;32;20082;-53
2020/12/25 00:46:23;;;;;;;0.30;0.30;;;5.60;99.90;;;;;;4386766;32;20063;-52
2020/12/25 00:48:48;;;;;;;0.30;0.30;;;5.70;99.90;;;;;;4384767;32;20126;-55
2020/12/25 00:51:18;;;;;;;0.50;0.50;;;5.60;99.90;;;;;;4384986;32;20087;-57
2020/12/25 00:53:44;;;;;;;6.07;0.75;;;5.50;99.90;;;;;;4384030;32;20468;-54
2020/12/25 00:56:10;;;;;;;0.30;0.30;;;5.60;99.90;;;;;;4385444;32;20070;-57
2020/12/25 00:58:36;;;;;;;0.80;0.50;;;5.60;99.90;;;;;;4373045;32;20074;-55
2020/12/25 01:01:03;;;;;;;0.30;0.30;;;5.70;99.90;;;;;;4386971;32;20114;-53
2020/12/25 01:03:28;;;;;;;0.70;0.70;;;5.60;99.90;;;;;;4385304;32;20114;-57
2020/12/25 01:05:54;;;;;;;0.40;0.40;;;5.60;99.90;;;;;;4391781;32;20068;-57
2020/12/25 01:08:19;;;;;;;0.65;0.65;;;5.70;99.90;;;;;;4401001;32;20117;-57
2020/12/25 01:10:45;;;;;;;0.30;0.30;;;5.70;99.90;;;;;;4395779;32;20062;-56
2020/12/25 01:13:10;;;;;;;0.95;0.60;;;5.70;99.90;;;;;;4385048;32;20130;-56
2020/12/25 01:15:35;;;;;;;1.02;0.95;;;5.70;99.90;;;;;;4385025;32;20534;-55
2020/12/25 01:18:01;;;;;;;0.50;0.50;;;5.70;99.90;;;;;;4392304;32;20066;-56
2020/12/25 01:20:26;;;;;;;0.30;0.30;;;5.70;99.90;;;;;;4401274;32;20520;-55
2020/12/25 01:22:52;;;;;;;0.40;0.40;;;5.70;99.90;;;;;;4400743;32;20058;-55
2020/12/25 01:25:17;;;;;;;0.30;0.30;;;5.80;99.90;;;;;;4399676;32;20067;-56
2020/12/25 01:27:43;;;;;;;2.37;0.45;;;5.70;99.90;;;;;;4401369;32;20099;-55
2020/12/25 01:30:08;;;;;;;0.30;0.30;;;5.80;99.90;;;;;;4401169;32;20061;-55
2020/12/25 01:32:35;;;;;;;1.25;1.15;;;5.80;99.90;;;;;;4401452;32;20070;-57
2020/12/25 01:35:02;;;;;;;0.55;0.55;;;5.80;99.90;;;;;;4400324;32;20857;-53
2020/12/25 01:37:28;;;;;;;0.30;0.30;;;5.80;99.90;;;;;;4400757;32;20062;-57
2020/12/25 01:39:53;;;;;;;0.30;0.30;;;5.70;99.90;;;;;;4400565;32;20122;-54
2020/12/25 01:42:19;;;;;;;0.30;0.30;;;5.70;99.90;;;;;;4399311;32;20085;-53
2020/12/25 01:44:44;;;;;;;0.32;0.32;;;5.80;99.90;;;;;;4400704;32;20114;-57
2020/12/25 01:47:10;;;;;;;0.32;0.32;;;5.80;99.90;;;;;;4401241;32;20078;-54
2020/12/25 01:49:36;;;;;;;0.28;0.28;;;5.80;99.90;;;;;;4400085;32;20071;-54
2020/12/25 01:52:01;;;;;;;0.50;0.50;;;5.80;99.90;;;;;;4400051;32;20078;-55
2020/12/25 01:54:27;;;;;;;3.92;0.45;;;5.80;99.90;;;;;;4400296;32;20481;-57
2020/12/25 01:56:53;;;;;;;0.37;0.32;;;5.80;99.90;;;;;;4399589;32;20417;-53
2020/12/25 01:59:19;;;;;;;0.30;0.30;;;5.60;99.90;;;;;;4399253;32;20070;-58
2020/12/25 02:01:45;;;;;;;0.40;0.40;;;5.70;99.90;;;;;;4400531;32;20058;-56
2020/12/25 02:04:10;;;;;;;0.30;0.30;;;5.70;99.90;;;;;;4399905;32;20050;-55
2020/12/25 02:06:37;;;;;;;0.20;0.20;;;5.60;99.90;;;;;;4398398;32;20401;-53
2020/12/25 02:09:03;;;;;;;0.37;0.37;;;5.70;99.90;;;;;;4400718;32;20066;-56
2020/12/25 02:11:29;;;;;;;0.32;0.32;;;5.70;99.90;;;;;;4389374;32;20074;-55
2020/12/25 02:13:55;;;;;;;0.40;0.40;;;5.70;99.90;;;;;;4385102;32;20547;-58
2020/12/25 02:16:20;;;;;;;0.25;0.25;;;5.70;99.90;;;;;;4385922;32;20075;-55
2020/12/25 02:18:45;;;;;;;0.47;0.47;;;5.60;99.90;;;;;;4397018;32;20074;-57
2020/12/25 02:21:11;;;;;;;0.40;0.40;;;5.70;99.90;;;;;;4398422;32;20083;-54
2020/12/25 02:23:36;;;;;;;0.40;0.40;;;5.70;99.90;;;;;;4399940;32;20069;-57
2020/12/25 02:26:02;;;;;;;0.30;0.30;;;5.60;99.90;;;;;;4399906;32;20070;-53
2020/12/25 02:28:27;;;;;;;0.30;0.30;;;5.50;99.90;;;;;;4400035;32;20065;-57
2020/12/25 02:30:53;;;;;;;0.25;0.25;;;5.60;99.90;;;;;;4400798;32;20086;-57
2020/12/25 02:33:18;;;;;;;0.30;0.30;;;5.50;99.90;;;;;;4400458;32;20070;-57
2020/12/25 02:35:44;;;;;;;0.50;0.50;;;5.50;99.90;;;;;;4398571;32;20065;-55
2020/12/25 02:38:09;;;;;;;0.30;0.30;;;5.50;99.90;;;;;;4399801;32;20465;-56
2020/12/25 02:40:35;;;;;;;0.30;0.30;;;5.40;99.90;;;;;;4400107;32;20070;-55
2020/12/25 02:43:00;;;;;;;0.62;0.62;;;5.40;99.90;;;;;;4400363;32;20117;-57
2020/12/25 02:45:25;;;;;;;0.30;0.30;;;5.40;99.90;;;;;;4400251;32;20417;-54
2020/12/25 02:47:51;;;;;;;0.30;0.30;;;5.40;99.90;;;;;;4399378;32;20069;-57
2020/12/25 02:50:16;;;;;;;0.40;0.40;;;5.40;99.90;;;;;;4399890;32;20070;-53
2020/12/25 02:52:42;;;;;;;0.20;0.20;;;5.30;99.90;;;;;;4398916;32;20058;-58
2020/12/25 02:55:07;;;;;;;0.30;0.30;;;5.30;99.90;;;;;;4398883;32;20501;-58
2020/12/25 02:57:33;;;;;;;0.45;0.45;;;5.20;99.90;;;;;;4399716;32;20058;-53
2020/12/25 02:59:58;;;;;;;0.32;0.32;;;5.20;99.90;;;;;;4399780;32;20078;-56
2020/12/25 03:02:24;;;;;;;0.32;0.32;;;5.20;99.90;;;;;;4398916;32;20070;-56
2020/12/25 03:04:49;;;;;;;0.32;0.32;;;5.20;99.90;;;;;;4384994;32;20655;-55
2020/12/25 03:07:15;;;;;;;0.80;0.80;;;5.20;99.90;;;;;;4399854;32;20057;-53
2020/12/25 03:09:40;;;;;;;0.40;0.40;;;5.20;99.90;;;;;;4399560;32;20150;-58
2020/12/25 03:12:07;;;;;;;0.30;0.30;;;5.20;99.90;;;;;;4385859;32;20468;-57
2020/12/25 03:14:32;;;;;;;0.30;0.30;;;5.30;99.90;;;;;;4370140;32;20109;-57
2020/12/25 03:16:58;;;;;;;0.32;0.32;;;5.30;99.90;;;;;;4384930;32;20114;-55
2020/12/25 03:19:23;;;;;;;0.30;0.30;;;5.20;99.90;;;;;;4400327;32;20066;-53
2020/12/25 03:21:49;;;;;;;0.30;0.30;;;5.20;99.90;;;;;;4399858;32;20086;-52
2020/12/25 03:24:14;;;;;;;0.30;0.30;;;5.20;99.90;;;;;;4399810;32;20547;-54
2020/12/25 03:26:40;;;;;;;0.30;0.30;;;5.10;99.90;;;;;;4398684;32;20062;-55
2020/12/25 03:29:05;;;;;;;0.30;0.30;;;5.10;99.90;;;;;;4399725;32;20520;-53
2020/12/25 03:31:31;;;;;;;1.17;0.57;;;5.10;99.90;;;;;;4399170;32;20125;-57
2020/12/25 03:33:56;;;;;;;0.30;0.30;;;5.20;99.90;;;;;;4399989;32;20087;-53
2020/12/25 03:36:22;;;;;;;0.30;0.30;;;5.30;99.90;;;;;;4399166;32;20102;-53
2020/12/25 03:38:47;;;;;;;1.00;0.82;;;5.30;99.90;;;;;;4399436;32;20508;-54
2020/12/25 03:41:13;;;;;;;0.30;0.30;;;5.20;99.90;;;;;;4398528;32;20077;-57
2020/12/25 03:43:38;;;;;;;0.37;0.37;;;5.20;99.90;;;;;;4398362;32;20066;-52
2020/12/25 03:46:04;;;;;;;0.28;0.28;;;5.10;99.90;;;;;;4399781;32;20073;-57
2020/12/25 03:48:29;;;;;;;0.28;0.28;;;5.00;99.90;;;;;;4397703;32;20077;-53
2020/12/25 03:50:56;;;;;;;0.20;0.20;;;5.00;99.90;;;;;;4398456;32;20121;-55
2020/12/25 03:53:21;;;;;;;0.20;0.20;;;5.00;99.90;;;;;;4398021;32;20109;-55
2020/12/25 03:55:46;;;;;;;0.30;0.30;;;5.00;99.90;;;;;;4398246;32;20074;-56
2020/12/25 03:58:12;;;;;;;0.30;0.30;;;4.90;99.90;;;;;;4398859;32;20117;-57
2020/12/25 04:00:37;;;;;;;0.43;0.43;;;4.90;99.90;;;;;;4399020;32;20062;-55
2020/12/25 04:03:03;;;;;;;0.20;0.20;;;4.80;99.90;;;;;;4399776;32;20517;-54
2020/12/25 04:05:28;;;;;;;0.40;0.40;;;5.00;99.90;;;;;;4399689;32;20070;-54
2020/12/25 04:07:54;;;;;;;0.30;0.30;;;4.90;99.90;;;;;;4399191;32;20569;-55
2020/12/25 04:10:19;;;;;;;0.30;0.30;;;5.00;99.90;;;;;;4395364;32;20488;-57
2020/12/25 04:12:45;;;;;;;0.98;0.73;;;5.00;99.90;;;;;;4384388;32;20070;-53
2020/12/25 04:15:10;;;;;;;0.20;0.20;;;5.10;99.90;;;;;;4381811;32;20066;-56
2020/12/25 04:17:36;;;;;;;0.30;0.30;;;5.00;99.90;;;;;;4387540;32;20099;-58
2020/12/25 04:20:02;;;;;;;0.30;0.30;;;5.00;99.90;;;;;;4398132;32;20421;-56
2020/12/25 04:22:28;;;;;;;0.20;0.20;;;5.10;99.90;;;;;;4398581;32;20081;-54
2020/12/25 04:24:53;;;;;;;0.30;0.30;;;5.10;99.90;;;;;;4398344;32;20536;-55
2020/12/25 04:27:19;;;;;;;0.30;0.30;;;5.10;99.90;;;;;;4398674;32;20113;-54
2020/12/25 04:29:44;;;;;;;0.30;0.30;;;5.00;99.90;;;;;;4399592;32;20070;-55
2020/12/25 04:32:10;;;;;;;0.30;0.30;;;5.10;99.90;;;;;;4399380;32;20085;-55
2020/12/25 04:34:35;;;;;;;0.30;0.30;;;5.20;99.90;;;;;;4399062;32;20073;-56
2020/12/25 04:37:00;;;;;;;0.30;0.30;;;5.20;99.90;;;;;;4397561;32;20067;-53
2020/12/25 04:39:26;;;;;;;0.20;0.20;;;5.20;99.90;;;;;;4399084;32;20070;-54
2020/12/25 04:41:51;;;;;;;0.37;0.37;;;5.10;99.90;;;;;;4397657;32;20113;-57
2020/12/25 04:44:17;;;;;;;0.40;0.40;;;5.10;99.90;;;;;;4398785;32;20113;-54
2020/12/25 04:46:43;;;;;;;0.30;0.30;;;5.00;99.90;;;;;;4399419;32;20074;-55
2020/12/25 04:49:09;;;;;;;0.30;0.30;;;5.00;99.90;;;;;;4399192;32;20079;-53
2020/12/25 04:51:35;;;;;;;1.08;0.50;;;5.10;99.90;;;;;;4398858;32;20058;-55
2020/12/25 04:54:00;;;;;;;0.52;0.52;;;5.10;99.90;;;;;;4398143;32;20120;-58
2020/12/25 04:56:26;;;;;;;0.30;0.30;;;5.00;99.90;;;;;;4398047;32;20110;-53
2020/12/25 04:58:53;;;;;;;0.30;0.30;;;4.90;99.90;;;;;;4397094;32;20067;-55
2020/12/25 05:01:19;;;;;;;0.30;0.30;;;4.80;99.90;;;;;;4400535;32;20117;-53
2020/12/25 05:03:45;;;;;;;1.85;0.70;;;4.80;99.90;;;;;;4401518;32;20062;-54
2020/12/25 05:06:14;;;;;;;0.30;0.30;;;4.70;99.90;;;;;;4387289;32;20062;-53
2020/12/25 05:08:42;;;;;;;0.52;0.40;;;4.70;99.90;;;;;;4402040;32;20121;-54
2020/12/25 05:11:09;;;;;;;0.30;0.30;;;4.70;99.90;;;;;;4391978;32;20114;-54
2020/12/25 05:13:44;;;;;;;0.30;0.30;;;4.70;99.90;;;;;;4384689;32;20554;-56
2020/12/25 05:16:10;;;;;;;0.20;0.20;;;4.60;99.90;;;;;;4385378;32;20122;-54
2020/12/25 05:18:40;;;;;;;0.30;0.30;;;4.70;99.90;;;;;;4396226;32;20133;-57
2020/12/25 05:21:09;;;;;;;0.30;0.30;;;4.60;99.90;;;;;;4401235;32;20066;-55
2020/12/25 05:23:37;;;;;;;0.25;0.25;;;4.70;99.90;;;;;;4399636;32;20121;-56
2020/12/25 05:26:05;;;;;;;0.30;0.30;;;4.70;99.90;;;;;;4399180;32;20133;-55
2020/12/25 05:28:32;;;;;;;0.30;0.30;;;4.60;99.90;;;;;;4401757;32;20188;-52
2020/12/25 05:30:59;;;;;;;0.28;0.28;;;4.60;99.90;;;;;;4401579;32;20120;-54
2020/12/25 05:33:25;;;;;;;0.60;0.60;;;4.50;99.90;;;;;;4400073;32;20066;-55
2020/12/25 05:35:54;;;;;;;0.30;0.30;;;4.60;99.90;;;;;;4401715;32;20066;-55
2020/12/25 05:38:21;;;;;;;0.30;0.30;;;4.60;99.90;;;;;;4387841;32;20066;-55
2020/12/25 05:40:47;;;;;;;7.20;1.17;;;4.70;99.90;;;;;;4399695;32;20074;-54
2020/12/25 05:43:15;;;;;;;0.30;0.30;;;4.60;99.90;;;;;;4400569;32;20069;-53
2020/12/25 05:45:41;;;;;;;0.30;0.30;;;4.70;99.90;;;;;;4401334;32;20062;-53
2020/12/25 05:48:08;;;;;;;0.40;0.40;;;4.70;99.90;;;;;;4399836;32;20082;-57
2020/12/25 05:50:35;;;;;;;0.30;0.30;;;4.70;99.90;;;;;;4399106;32;20078;-57
2020/12/25 05:53:01;;;;;;;1.27;0.93;;;4.70;99.90;;;;;;4400186;32;20075;-54
2020/12/25 05:55:26;;;;;;;0.30;0.30;;;4.60;99.90;;;;;;4400636;32;20061;-57
2020/12/25 05:57:53;;;;;;;0.30;0.30;;;4.50;99.90;;;;;;4400579;32;20074;-55
2020/12/25 06:00:21;;;;;;;0.40;0.40;;;4.60;99.90;;;;;;4399694;32;20117;-54
2020/12/25 06:02:47;;;;;;;0.30;0.30;;;4.50;99.90;;;;;;4388502;32;20129;-53
2020/12/25 06:05:15;;;;;;;0.37;0.37;;;4.60;99.90;;;;;;4398757;32;20396;-53
2020/12/25 06:07:58;;;;;;;0.50;0.50;;;4.60;99.90;;;;;;4401537;32;20078;-52
2020/12/25 06:10:26;;;;;;;0.30;0.30;;;4.50;99.90;;;;;;4386847;32;20422;-54
2020/12/25 06:12:53;;;;;;;1.90;1.02;;;4.40;99.90;;;;;;4401175;32;20504;-57
2020/12/25 06:15:23;;;;;;;0.30;0.30;;;4.40;99.90;;;;;;4399189;32;20145;-57
2020/12/25 06:18:12;;;;;;;0.30;0.30;;;4.40;99.90;;;;;;4393217;32;20090;-53
2020/12/25 06:20:46;;;;;;;0.30;0.30;;;4.30;99.90;;;;;;4374626;32;20066;-56
2020/12/25 06:23:12;;;;;;;0.50;0.50;;;4.30;99.90;;;;;;4385508;32;20455;-55
2020/12/25 06:25:39;;;;;;;0.30;0.30;;;4.40;99.90;;;;;;4370971;32;20083;-55
2020/12/25 06:28:06;;;;;;;0.22;0.22;;;4.30;99.90;;;;;;4383845;32;20062;-56
2020/12/25 06:30:33;;;;;;;0.32;0.32;;;4.30;99.90;;;;;;4385661;32;20075;-54
2020/12/25 06:32:59;;;;;;;0.30;0.30;;;4.30;99.90;;;;;;4385857;32;20121;-52
2020/12/25 06:35:43;;;;;;;0.98;0.80;;;4.30;99.90;;;;;;4385236;32;20522;-54
2020/12/25 06:38:11;;;;;;;0.22;0.22;;;4.30;99.90;;;;;;4383747;32;20405;-57
2020/12/25 06:40:37;;;;;;;0.30;0.30;;;4.40;99.90;;;;;;4383770;32;20411;-52
2020/12/25 06:43:10;;;;;;;0.30;0.30;;;4.40;99.90;;;;;;4383987;32;20058;-52
2020/12/25 06:45:36;;;;;;;0.40;0.32;;;4.40;99.90;;;;;;4384242;32;20082;-55
2020/12/25 06:48:11;;;;;;;0.30;0.30;;;4.30;99.90;;;;;;4385072;32;20078;-53
2020/12/25 06:50:41;;;;;;;0.30;0.30;;;4.30;99.90;;;;;;4371962;32;20055;-55
2020/12/25 06:53:06;;;;;;;2.22;1.48;;;4.20;99.90;;;;;;4384638;32;20070;-55
2020/12/25 06:55:42;;;;;;;0.30;0.30;;;4.20;99.90;;;;;;4382785;32;20066;-53
2020/12/25 06:58:08;;;;;;;0.30;0.30;;;4.20;99.90;;;;;;4381370;32;20062;-55
2020/12/25 07:00:34;;;;;;;0.30;0.30;;;4.20;99.90;;;;;;4400138;32;20140;-56
2020/12/25 07:03:15;;;;;;;0.40;0.40;;;4.10;99.90;;;;;;4401046;32;20560;-52
2020/12/25 07:05:48;;;;;;;0.30;0.30;;;4.20;99.90;;;;;;4394957;32;20058;-53
2020/12/25 07:08:32;;;;;;;0.32;0.32;;;4.20;99.90;;;;;;4384450;32;20083;-56
2020/12/25 07:11:07;;;;;;;0.30;0.30;;;4.20;99.90;;;;;;4378061;32;20070;-52
2020/12/25 07:13:33;;;;;;;0.30;0.30;;;4.30;99.90;;;;;;4399807;32;20098;-53
2020/12/25 07:15:59;;;;;;;0.30;0.30;;;4.20;99.90;;;;;;4397381;32;20058;-55
2020/12/25 07:18:25;;;;;;;0.30;0.30;;;4.20;99.90;;;;;;4376556;32;20082;-53
2020/12/25 07:20:51;;;;;;;0.80;0.80;;;4.20;99.90;;;;;;4383756;32;20063;-56
2020/12/25 07:23:18;;;;;;;0.40;0.40;;;4.20;99.90;;;;;;4383616;32;20066;-53
2020/12/25 07:25:43;;;;;;;0.30;0.30;;;4.10;99.90;;;;;;4383916;32;20480;-56
2020/12/25 07:28:09;;;;;;;0.30;0.30;;;4.20;99.90;;;;;;4383511;32;20113;-54
2020/12/25 07:30:34;;;;;;;0.25;0.25;;;4.20;99.90;;;;;;4383936;32;20066;-55
2020/12/25 07:33:03;;;;;;;0.20;0.20;;;4.10;99.90;;;;;;4384657;32;20094;-52
2020/12/25 07:35:29;;;;;;;0.40;0.40;;;4.20;99.90;;;;;;4382937;32;20122;-57
2020/12/25 07:37:55;;;;;;;0.40;0.40;;;4.30;99.90;;;;;;4383843;32;20058;-52
2020/12/25 07:40:20;;;;;;;0.30;0.30;;;4.30;99.90;;;;;;4383743;32;20069;-53
2020/12/25 07:42:46;;;;;;;0.30;0.30;;;4.30;99.90;;;;;;4384677;32;20083;-52
2020/12/25 07:45:12;;;;;;;0.40;0.40;;;4.20;99.90;;;;;;4383186;32;20050;-54
2020/12/25 07:47:39;;;;;;;0.30;0.30;;;4.30;99.90;;;;;;4385048;32;20563;-56
2020/12/25 07:50:05;;;;;;;0.40;0.40;;;4.30;99.90;;;;;;4369830;32;20074;-57
2020/12/25 07:52:30;;;;;;;0.30;0.30;;;4.30;99.90;;;;;;4384418;32;20063;-56
2020/12/25 07:54:56;;;;;;;0.30;0.30;;;4.30;99.90;;;;;;4384471;32;20144;-57
2020/12/25 07:57:22;;;;;;;0.30;0.30;;;4.20;99.90;;;;;;4391273;32;20074;-53
2020/12/25 07:59:49;;;;;;;0.30;0.30;;;4.20;99.90;;;;;;4399636;32;20471;-52
2020/12/25 08:02:16;;;;;;;0.37;0.37;;;4.20;99.90;;;;;;4398723;32;20771;-55
2020/12/25 08:04:43;;;;;;;0.40;0.40;;;4.20;99.90;;;;;;4399780;32;20090;-52
2020/12/25 08:07:09;;;;;;;0.40;0.40;;;4.30;99.90;;;;;;4384056;32;20608;-52
2020/12/25 08:09:37;;;;;;;0.32;0.32;;;4.20;99.90;;;;;;4384086;32;20061;-53
2020/12/25 08:12:07;;;;;;;0.30;0.30;;;4.10;99.90;;;;;;4397485;32;20062;-52
2020/12/25 08:14:32;;;;;;;0.30;0.30;;;4.20;99.90;;;;;;4399661;32;20401;-52
2020/12/25 08:16:58;;;;;;;4.87;0.85;;;4.30;99.90;;;;;;4397854;32;20074;-54
2020/12/25 08:19:23;;;;;;;0.30;0.30;;;4.30;99.90;;;;;;4399337;32;20070;-55
2020/12/25 08:21:49;;;;;;;0.20;0.20;;;4.30;99.90;;;;;;4399137;32;20075;-58
2020/12/25 08:24:18;;;;;;;1.92;0.70;;;4.30;99.90;;;;;;4398540;32;20082;-56
2020/12/25 08:26:46;;;;;;;0.30;0.30;;;4.40;99.90;;;;;;4397911;32;20413;-54
2020/12/25 08:29:12;;;;;;;0.30;0.30;;;4.40;99.90;;;;;;4398660;32;20073;-57
2020/12/25 08:31:40;;;;;;;0.20;0.20;;;4.30;99.90;;;;;;4399369;32;20125;-58
2020/12/25 08:34:13;;;;;;;1.75;1.35;;;4.20;99.90;;;;;;4399436;32;20067;-54
2020/12/25 08:36:38;;;;;;;0.30;0.30;;;4.20;99.90;;;;;;4400966;32;20099;-56
2020/12/25 08:39:04;;;;;;;0.40;0.40;;;4.20;99.90;;;;;;4401613;32;20058;-53
2020/12/25 08:41:30;;;;;;;4.03;1.55;;;4.30;99.90;;;;;;4398328;32;93355;-55
2020/12/25 08:44:09;;;;;;;0.30;0.30;;;4.30;99.90;;;;;;4400773;32;20062;-57
2020/12/25 08:46:34;;;;;;;0.30;0.30;;;4.30;99.90;;;;;;4401828;32;20086;-56
2020/12/25 08:49:00;;;;;;;0.40;0.40;;;4.30;99.90;;;;;;4401800;32;20074;-56
2020/12/25 08:51:33;;;;;;;0.37;0.37;;;4.40;99.90;;;;;;4401643;32;20058;-55
2020/12/25 08:53:58;;;;;;;0.37;0.37;;;4.40;99.90;;;;;;4398633;32;20062;-53
2020/12/25 08:56:27;;;;;;;0.40;0.40;;;4.40;99.90;;;;;;4399408;32;20087;-53
2020/12/25 08:58:55;;;;;;;0.30;0.30;;;4.30;99.90;;;;;;4385995;32;20059;-57
2020/12/25 09:01:21;;;;;;;0.32;0.32;;;4.40;99.90;;;;;;4387016;32;20087;-55
2020/12/25 09:03:47;;;;;;;0.30;0.30;;;4.30;99.90;;;;;;4385087;32;20066;-54
2020/12/25 09:06:13;;;;;;;0.20;0.20;;;4.30;99.90;;;;;;4394962;32;20051;-54
2020/12/25 09:08:39;;;;;;;0.30;0.30;;;4.30;99.90;;;;;;4399431;32;20069;-56
2020/12/25 09:11:15;;;;;;;3.12;1.12;;;4.20;99.90;;;;;;4401568;32;20062;-55
2020/12/25 09:13:41;;;;;;;0.30;0.30;;;4.40;99.90;;;;;;4400771;32;20412;-58
2020/12/25 09:16:08;;;;;;;0.30;0.30;;;4.30;99.90;;;;;;4401757;32;20070;-56
2020/12/25 09:18:34;;;;;;;0.30;0.30;;;4.30;99.90;;;;;;4389228;32;20524;-57
2020/12/25 09:21:00;;;;;;;0.35;0.35;;;4.40;99.90;;;;;;4372270;32;20110;-58
2020/12/25 09:23:27;;;;;;;0.30;0.30;;;4.40;99.90;;;;;;4386047;32;20078;-57
2020/12/25 09:25:53;;;;;;;0.30;0.30;;;4.50;99.90;;;;;;4389909;32;20523;-57
2020/12/25 09:28:19;;;;;;;0.30;0.30;;;4.60;99.90;;;;;;4386395;32;20075;-55
2020/12/25 09:30:44;;;;;;;0.20;0.20;;;4.60;99.90;;;;;;4386357;32;20476;-58
2020/12/25 09:33:10;;;;;;;0.35;0.35;;;4.70;99.90;;;;;;4387037;32;20074;-58
2020/12/25 09:35:35;;;;;;;0.50;0.50;;;4.60;99.90;;;;;;4385894;32;20167;-53
2020/12/25 09:38:01;;;;;;;0.30;0.30;;;4.50;99.90;;;;;;4386022;32;20086;-58
2020/12/25 09:40:26;;;;;;;0.30;0.30;;;4.60;99.90;;;;;;4385957;32;20438;-57
2020/12/25 09:42:52;;;;;;;0.30;0.30;;;4.60;99.90;;;;;;4384883;32;20077;-54
2020/12/25 09:45:17;;;;;;;0.32;0.32;;;4.60;99.90;;;;;;4385710;32;20574;-56
2020/12/25 09:47:42;;;;;;;0.30;0.30;;;4.70;99.90;;;;;;4386160;32;20083;-55
2020/12/25 09:50:08;;;;;;;0.50;0.50;;;4.60;99.90;;;;;;4385243;32;20497;-53
2020/12/25 09:52:35;;;;;;;0.40;0.40;;;4.70;99.90;;;;;;4384999;32;20070;-57
2020/12/25 09:55:00;;;;;;;0.90;0.82;;;4.80;99.90;;;;;;4384956;32;20078;-56
2020/12/25 09:57:26;;;;;;;0.75;0.47;;;4.80;99.90;;;;;;4394030;32;20066;-57
2020/12/25 09:59:54;;;;;;;0.30;0.30;;;4.80;99.90;;;;;;4400769;32;20066;-57
2020/12/25 10:02:20;;;;;;;0.30;0.30;;;4.80;99.90;;;;;;4400164;32;20114;-57
2020/12/25 10:04:45;;;;;;;0.30;0.30;;;4.70;99.90;;;;;;4386955;32;20062;-53
2020/12/25 10:07:10;;;;;;;0.30;0.30;;;4.70;99.90;;;;;;4386189;32;20085;-54
2020/12/25 10:09:36;;;;;;;0.40;0.40;;;4.80;99.90;;;;;;4386271;32;20066;-57
2020/12/25 10:12:01;;;;;;;0.30;0.30;;;4.90;99.90;;;;;;4397383;32;20066;-55
2020/12/25 10:14:28;;;;;;;0.30;0.30;;;4.80;99.90;;;;;;4400164;32;20077;-54
2020/12/25 10:16:53;;;;;;;0.62;0.50;;;4.80;99.90;;;;;;4400308;32;20070;-56
2020/12/25 10:19:19;;;;;;;0.30;0.30;;;4.80;99.90;;;;;;4400587;32;20118;-57
2020/12/25 10:21:44;;;;;;;0.50;0.50;;;4.80;99.90;;;;;;4401537;32;20070;-54
2020/12/25 10:24:10;;;;;;;0.30;0.30;;;4.90;99.90;;;;;;4398662;32;20393;-55
2020/12/25 10:26:35;;;;;;;0.32;0.32;;;4.90;99.90;;;;;;4399609;32;20074;-57
2020/12/25 10:29:01;;;;;;;0.40;0.40;;;4.90;99.90;;;;;;4400864;32;20090;-55
2020/12/25 10:31:26;;;;;;;0.30;0.30;;;4.90;99.90;;;;;;4400950;32;20061;-52
2020/12/25 10:33:52;;;;;;;0.30;0.30;;;4.90;99.90;;;;;;4400275;32;20074;-52
2020/12/25 10:36:23;;;;;;;2.17;0.75;;;5.00;99.90;;;;;;4400293;32;20499;-57
2020/12/25 10:38:49;;;;;;;0.30;0.30;;;5.00;99.90;;;;;;4398600;32;20076;-55
2020/12/25 10:41:14;;;;;;;0.30;0.30;;;5.00;99.90;;;;;;4398475;32;20062;-57
2020/12/25 10:43:39;;;;;;;0.30;0.30;;;5.00;99.90;;;;;;4399914;32;20062;-55
2020/12/25 10:46:05;;;;;;;0.30;0.30;;;5.00;99.90;;;;;;4400007;32;20127;-55
2020/12/25 10:48:30;;;;;;;0.30;0.30;;;5.00;99.90;;;;;;4399927;32;20087;-54
2020/12/25 10:50:56;;;;;;;0.30;0.30;;;5.00;99.90;;;;;;4400233;32;20113;-54
2020/12/25 10:53:21;;;;;;;0.30;0.30;;;4.80;99.90;;;;;;4389898;32;20075;-53
2020/12/25 10:55:47;;;;;;;0.30;0.30;;;4.80;99.90;;;;;;4383276;32;20074;-54
2020/12/25 10:58:12;;;;;;;0.30;0.30;;;4.70;99.90;;;;;;4397204;32;20519;-55
2020/12/25 11:00:38;;;;;;;0.30;0.30;;;4.70;99.90;;;;;;4399828;32;20062;-56
2020/12/25 11:03:03;;;;;;;1.20;0.60;;;4.70;99.90;;;;;;4399425;32;20074;-53
2020/12/25 11:05:29;;;;;;;0.30;0.30;;;4.80;99.90;;;;;;4370055;32;20420;-56
2020/12/25 11:07:57;;;;;;;0.30;0.30;;;4.80;99.90;;;;;;4385160;32;20082;-53
2020/12/25 11:10:23;;;;;;;0.30;0.30;;;4.70;99.90;;;;;;4388307;32;20129;-52
2020/12/25 11:12:49;;;;;;;0.32;0.32;;;4.70;99.90;;;;;;4399574;32;20071;-53
2020/12/25 11:15:14;;;;;;;0.28;0.28;;;4.80;99.90;;;;;;4400062;32;20069;-52
2020/12/25 11:17:40;;;;;;;0.30;0.30;;;4.80;99.90;;;;;;4393203;32;20531;-53
2020/12/25 11:20:06;;;;;;;0.35;0.35;;;4.80;99.90;;;;;;4382840;32;20133;-54
2020/12/25 11:22:31;;;;;;;0.40;0.40;;;4.80;99.90;;;;;;4383365;32;20802;-55
2020/12/25 11:24:56;;;;;;;26.83;2.42;;;4.90;99.90;;;;;;4383978;32;20128;-57
2020/12/25 11:27:22;;;;;;;0.70;0.70;;;4.90;99.90;;;;;;4383842;32;20058;-56
2020/12/25 11:29:47;;;;;;;0.30;0.30;;;4.80;99.90;;;;;;4383834;32;20073;-56
2020/12/25 11:32:13;;;;;;;0.30;0.30;;;4.70;99.90;;;;;;4384312;32;20074;-57
2020/12/25 11:34:38;;;;;;;0.30;0.30;;;4.80;99.90;;;;;;4385133;32;20067;-56
2020/12/25 11:37:04;;;;;;;0.30;0.30;;;4.90;99.90;;;;;;4384386;32;20057;-53
2020/12/25 11:39:29;;;;;;;0.30;0.30;;;4.90;99.90;;;;;;4384531;32;20480;-57
2020/12/25 11:41:55;;;;;;;0.30;0.30;;;4.80;99.90;;;;;;4383612;32;20070;-56
2020/12/25 11:44:21;;;;;;;0.52;0.52;;;4.70;99.90;;;;;;4382482;32;20409;-57
2020/12/25 11:46:46;;;;;;;0.55;0.55;;;4.70;99.90;;;;;;4383730;32;20094;-53
2020/12/25 11:49:12;;;;;;;0.30;0.30;;;4.70;99.90;;;;;;4383749;32;20066;-57
2020/12/25 11:51:37;;;;;;;0.30;0.30;;;4.70;99.90;;;;;;4383524;32;20143;-56
2020/12/25 11:54:02;;;;;;;0.30;0.30;;;4.60;99.90;;;;;;4382967;32;20077;-55
2020/12/25 11:56:29;;;;;;;0.30;0.30;;;4.70;99.90;;;;;;4386376;32;20062;-55
2020/12/25 11:58:57;;;;;;;0.30;0.30;;;4.60;99.90;;;;;;4399911;32;20075;-53
2020/12/25 12:01:22;;;;;;;0.40;0.40;;;4.70;99.90;;;;;;4386023;32;20083;-56
2020/12/25 12:03:48;;;;;;;0.30;0.30;;;4.70;99.90;;;;;;4399164;32;20540;-57
2020/12/25 12:06:19;;;;;;;0.30;0.30;;;4.60;99.90;;;;;;4391835;32;20078;-58
2020/12/25 12:08:45;;;;;;;0.40;0.40;;;4.70;99.90;;;;;;4384646;32;20090;-54
2020/12/25 12:11:10;;;;;;;0.35;0.35;;;4.70;99.90;;;;;;4392829;32;20077;-58
2020/12/25 12:13:36;;;;;;;0.40;0.40;;;4.70;99.90;;;;;;4402502;32;20406;-57
2020/12/25 12:16:01;;;;;;;0.28;0.28;;;4.70;99.90;;;;;;4403413;32;20062;-57
2020/12/25 12:18:27;;;;;;;0.30;0.30;;;4.80;99.90;;;;;;4402549;32;20576;-58
2020/12/25 12:20:52;;;;;;;0.30;0.30;;;4.90;99.90;;;;;;4402419;32;20531;-56
2020/12/25 12:23:18;;;;;;;0.30;0.30;;;4.80;99.90;;;;;;4403517;32;20229;-56
2020/12/25 12:25:44;;;;;;;0.30;0.30;;;4.70;99.90;;;;;;4387123;32;20077;-56
2020/12/25 12:28:09;;;;;;;0.40;0.40;;;4.80;99.90;;;;;;4400685;32;20067;-55
2020/12/25 12:30:35;;;;;;;0.30;0.30;;;4.70;99.90;;;;;;4401072;32;20469;-54
2020/12/25 12:33:00;;;;;;;0.30;0.30;;;4.70;99.90;;;;;;4401650;32;20061;-57
2020/12/25 12:35:26;;;;;;;0.30;0.30;;;4.60;99.90;;;;;;4401697;32;20551;-57
2020/12/25 12:37:52;;;;;;;0.62;0.62;;;4.60;99.90;;;;;;4402153;32;20132;-55
2020/12/25 12:40:18;;;;;;;2.10;0.95;;;4.60;99.90;;;;;;4401438;32;20074;-55
2020/12/25 12:42:43;;;;;;;0.30;0.30;;;4.60;99.90;;;;;;4400102;32;20057;-54
2020/12/25 12:45:09;;;;;;;0.30;0.30;;;4.80;99.90;;;;;;4401740;32;20486;-55
2020/12/25 12:47:36;;;;;;;0.30;0.30;;;4.70;99.90;;;;;;4399432;32;20074;-52
2020/12/25 12:50:03;;;;;;;0.30;0.30;;;4.70;99.90;;;;;;4401187;32;20086;-55
2020/12/25 12:52:29;;;;;;;0.32;0.32;;;4.60;99.90;;;;;;4400229;32;20069;-56
2020/12/25 12:54:54;;;;;;;0.30;0.30;;;4.60;99.90;;;;;;4401120;32;20083;-57
2020/12/25 12:57:20;;;;;;;0.30;0.30;;;4.60;99.90;;;;;;4391702;32;20094;-54